sensor_id;sensor_type;location;lat;lon;timestamp;temperature;humidity
31639;DHT22;18248;51.522;7.020;2024-01-30T00:00:32;7.10;99.90
31639;DHT22;18248;51.522;7.020;2024-01-30T00:03:30;7.10;99.90
31639;DHT22;18248;51.522;7.020;2024-01-30T00:06:29;7.10;99.90
31639;DHT22;18248;51.522;7.020;2024-01-30T00:09:27;7.10;99.90
31639;DHT22;18248;51.522;7.020;2024-01-30T00:12:26;7.10;99.90
31639;DHT22;18248;51.522;7.020;2024-01-30T00:15:24;7.00;99.90
31639;DHT22;18248;51.522;7.020;2024-01-30T00:18:23;7.00;99.90
31639;DHT22;18248;51.522;7.020;2024-01-30T00:21:21;7.00;99.90
31639;DHT22;18248;51.522;7.020;2024-01-30T00:24:20;7.00;99.90
31639;DHT22;18248;51.522;7.020;2024-01-30T00:27:19;7.00;99.90
31639;DHT22;18248;51.522;7.020;2024-01-30T00:30:17;6.90;99.90
31639;DHT22;18248;51.522;7.020;2024-01-30T00:33:16;6.90;99.90
31639;DHT22;18248;51.522;7.020;2024-01-30T00:36:14;6.90;99.90
31639;DHT22;18248;51.522;7.020;2024-01-30T00:39:13;6.90;99.90
31639;DHT22;18248;51.522;7.020;2024-01-30T00:42:13;7.00;99.90
31639;DHT22;18248;51.522;7.020;2024-01-30T00:45:16;7.00;99.90
31639;DHT22;18248;51.522;7.020;2024-01-30T00:48:15;7.00;99.90
31639;DHT22;18248;51.522;7.020;2024-01-30T00:51:13;7.00;99.90
31639;DHT22;18248;51.522;7.020;2024-01-30T00:54:12;7.00;99.90
31639;DHT22;18248;51.522;7.020;2024-01-30T00:57:10;7.10;99.90
31639;DHT22;18248;51.522;7.020;2024-01-30T01:00:09;7.10;99.90
31639;DHT22;18248;51.522;7.020;2024-01-30T01:03:08;7.10;99.90
31639;DHT22;18248;51.522;7.020;2024-01-30T01:06:07;7.10;99.90
31639;DHT22;18248;51.522;7.020;2024-01-30T01:09:05;7.10;99.90
31639;DHT22;18248;51.522;7.020;2024-01-30T01:12:04;7.10;99.90
31639;DHT22;18248;51.522;7.020;2024-01-30T01:15:03;7.10;99.90
31639;DHT22;18248;51.522;7.020;2024-01-30T01:18:02;7.10;99.90
31639;DHT22;18248;51.522;7.020;2024-01-30T01:21:00;7.10;99.90
31639;DHT22;18248;51.522;7.020;2024-01-30T01:23:59;7.10;99.90
31639;DHT22;18248;51.522;7.020;2024-01-30T01:26:58;7.10;99.90
31639;DHT22;18248;51.522;7.020;2024-01-30T01:29:57;7.10;99.90
31639;DHT22;18248;51.522;7.020;2024-01-30T01:32:56;7.10;99.90
31639;DHT22;18248;51.522;7.020;2024-01-30T01:35:55;7.00;99.90
31639;DHT22;18248;51.522;7.020;2024-01-30T01:38:54;7.10;99.90
31639;DHT22;18248;51.522;7.020;2024-01-30T01:41:52;7.00;99.90
31639;DHT22;18248;51.522;7.020;2024-01-30T01:44:51;7.10;99.90
31639;DHT22;18248;51.522;7.020;2024-01-30T01:47:53;7.00;99.90
31639;DHT22;18248;51.522;7.020;2024-01-30T01:50:52;7.00;99.90
31639;DHT22;18248;51.522;7.020;2024-01-30T01:53:51;7.00;99.90
31639;DHT22;18248;51.522;7.020;2024-01-30T01:56:50;7.00;99.90
31639;DHT22;18248;51.522;7.020;2024-01-30T01:59:49;7.00;99.90
31639;DHT22;18248;51.522;7.020;2024-01-30T02:02:47;7.00;99.90
31639;DHT22;18248;51.522;7.020;2024-01-30T02:05:48;7.00;99.90
31639;DHT22;18248;51.522;7.020;2024-01-30T02:08:47;7.00;99.90
31639;DHT22;18248;51.522;7.020;2024-01-30T02:11:45;6.90;99.90
31639;DHT22;18248;51.522;7.020;2024-01-30T02:14:45;6.90;99.90
31639;DHT22;18248;51.522;7.020;2024-01-30T02:17:44;6.90;99.90
31639;DHT22;18248;51.522;7.020;2024-01-30T02:20:43;6.90;99.90
31639;DHT22;18248;51.522;7.020;2024-01-30T02:23:43;6.80;99.90
31639;DHT22;18248;51.522;7.020;2024-01-30T02:26:42;6.80;99.90
31639;DHT22;18248;51.522;7.020;2024-01-30T02:29:42;6.80;99.90
31639;DHT22;18248;51.522;7.020;2024-01-30T02:32:40;6.80;99.90
31639;DHT22;18248;51.522;7.020;2024-01-30T02:35:39;6.80;99.90
31639;DHT22;18248;51.522;7.020;2024-01-30T02:38:38;6.70;99.90
31639;DHT22;18248;51.522;7.020;2024-01-30T02:41:36;6.70;99.90
31639;DHT22;18248;51.522;7.020;2024-01-30T02:44:35;6.70;99.90
31639;DHT22;18248;51.522;7.020;2024-01-30T02:47:33;6.70;99.90
31639;DHT22;18248;51.522;7.020;2024-01-30T02:50:32;6.70;99.90
31639;DHT22;18248;51.522;7.020;2024-01-30T02:53:30;6.70;99.90
31639;DHT22;18248;51.522;7.020;2024-01-30T02:56:29;6.60;99.90
31639;DHT22;18248;51.522;7.020;2024-01-30T02:59:27;6.60;99.90
31639;DHT22;18248;51.522;7.020;2024-01-30T03:02:26;6.60;99.90
31639;DHT22;18248;51.522;7.020;2024-01-30T03:05:24;6.60;99.90
31639;DHT22;18248;51.522;7.020;2024-01-30T03:08:23;6.60;99.90
31639;DHT22;18248;51.522;7.020;2024-01-30T03:11:21;6.60;99.90
31639;DHT22;18248;51.522;7.020;2024-01-30T03:14:20;6.50;99.90
31639;DHT22;18248;51.522;7.020;2024-01-30T03:17:18;6.50;99.90
31639;DHT22;18248;51.522;7.020;2024-01-30T03:20:17;6.50;99.90
31639;DHT22;18248;51.522;7.020;2024-01-30T03:23:15;6.50;99.90
31639;DHT22;18248;51.522;7.020;2024-01-30T03:26:14;6.50;99.90
31639;DHT22;18248;51.522;7.020;2024-01-30T03:29:13;6.40;99.90
31639;DHT22;18248;51.522;7.020;2024-01-30T03:32:12;6.40;99.90
31639;DHT22;18248;51.522;7.020;2024-01-30T03:35:10;6.40;99.90
31639;DHT22;18248;51.522;7.020;2024-01-30T03:38:09;6.40;99.90
31639;DHT22;18248;51.522;7.020;2024-01-30T03:41:08;6.30;99.90
31639;DHT22;18248;51.522;7.020;2024-01-30T03:44:08;6.30;99.90
31639;DHT22;18248;51.522;7.020;2024-01-30T03:47:06;6.30;99.90
31639;DHT22;18248;51.522;7.020;2024-01-30T03:50:05;6.30;99.90
31639;DHT22;18248;51.522;7.020;2024-01-30T03:53:03;6.20;99.90
31639;DHT22;18248;51.522;7.020;2024-01-30T03:56:02;6.20;99.90
31639;DHT22;18248;51.522;7.020;2024-01-30T03:59:01;6.20;99.90
31639;DHT22;18248;51.522;7.020;2024-01-30T04:02:01;6.20;99.90
31639;DHT22;18248;51.522;7.020;2024-01-30T04:04:59;6.20;99.90
31639;DHT22;18248;51.522;7.020;2024-01-30T04:07:58;6.20;99.90
31639;DHT22;18248;51.522;7.020;2024-01-30T04:10:57;6.20;99.90
31639;DHT22;18248;51.522;7.020;2024-01-30T04:13:55;6.20;99.90
31639;DHT22;18248;51.522;7.020;2024-01-30T04:16:53;6.20;99.90
31639;DHT22;18248;51.522;7.020;2024-01-30T04:19:52;6.20;99.90
31639;DHT22;18248;51.522;7.020;2024-01-30T04:22:50;6.10;99.90
31639;DHT22;18248;51.522;7.020;2024-01-30T04:25:49;6.10;99.90
31639;DHT22;18248;51.522;7.020;2024-01-30T04:28:47;6.10;99.90
31639;DHT22;18248;51.522;7.020;2024-01-30T04:31:46;6.00;99.90
31639;DHT22;18248;51.522;7.020;2024-01-30T04:34:44;6.00;99.90
31639;DHT22;18248;51.522;7.020;2024-01-30T04:37:43;6.00;99.90
31639;DHT22;18248;51.522;7.020;2024-01-30T04:40:41;6.00;99.90
31639;DHT22;18248;51.522;7.020;2024-01-30T04:43:40;6.00;99.90
31639;DHT22;18248;51.522;7.020;2024-01-30T04:46:39;5.90;99.90
31639;DHT22;18248;51.522;7.020;2024-01-30T04:49:39;5.90;99.90
31639;DHT22;18248;51.522;7.020;2024-01-30T04:52:38;5.90;99.90
31639;DHT22;18248;51.522;7.020;2024-01-30T04:55:36;5.90;99.90
31639;DHT22;18248;51.522;7.020;2024-01-30T04:58:35;5.90;99.90
31639;DHT22;18248;51.522;7.020;2024-01-30T05:01:34;5.90;99.90
31639;DHT22;18248;51.522;7.020;2024-01-30T05:04:32;5.90;99.90
31639;DHT22;18248;51.522;7.020;2024-01-30T05:07:31;5.90;99.90
31639;DHT22;18248;51.522;7.020;2024-01-30T05:10:29;5.90;99.90
31639;DHT22;18248;51.522;7.020;2024-01-30T05:13:28;5.90;99.90
31639;DHT22;18248;51.522;7.020;2024-01-30T05:16:26;5.90;99.90
31639;DHT22;18248;51.522;7.020;2024-01-30T05:19:25;5.90;99.90
31639;DHT22;18248;51.522;7.020;2024-01-30T05:22:24;6.00;99.90
31639;DHT22;18248;51.522;7.020;2024-01-30T05:25:22;6.00;99.90
31639;DHT22;18248;51.522;7.020;2024-01-30T05:28:21;6.10;99.90
31639;DHT22;18248;51.522;7.020;2024-01-30T05:31:20;6.10;99.90
31639;DHT22;18248;51.522;7.020;2024-01-30T05:34:19;6.10;99.90
31639;DHT22;18248;51.522;7.020;2024-01-30T05:37:18;6.30;99.90
31639;DHT22;18248;51.522;7.020;2024-01-30T05:40:16;6.50;99.90
31639;DHT22;18248;51.522;7.020;2024-01-30T05:43:15;6.70;99.90
31639;DHT22;18248;51.522;7.020;2024-01-30T05:46:14;6.80;99.90
31639;DHT22;18248;51.522;7.020;2024-01-30T05:49:12;7.00;99.90
31639;DHT22;18248;51.522;7.020;2024-01-30T05:52:11;7.20;99.90
31639;DHT22;18248;51.522;7.020;2024-01-30T05:55:09;7.30;99.90
31639;DHT22;18248;51.522;7.020;2024-01-30T05:58:08;7.50;99.90
31639;DHT22;18248;51.522;7.020;2024-01-30T06:01:07;7.60;99.90
31639;DHT22;18248;51.522;7.020;2024-01-30T06:04:08;7.60;99.90
31639;DHT22;18248;51.522;7.020;2024-01-30T06:07:06;7.60;99.90
31639;DHT22;18248;51.522;7.020;2024-01-30T06:10:06;7.70;99.90
31639;DHT22;18248;51.522;7.020;2024-01-30T06:13:06;7.80;99.90
31639;DHT22;18248;51.522;7.020;2024-01-30T06:16:04;7.90;99.90
31639;DHT22;18248;51.522;7.020;2024-01-30T06:19:04;8.00;99.90
31639;DHT22;18248;51.522;7.020;2024-01-30T06:22:03;8.00;99.90
31639;DHT22;18248;51.522;7.020;2024-01-30T06:25:03;8.10;99.90
31639;DHT22;18248;51.522;7.020;2024-01-30T06:28:02;8.00;99.90
31639;DHT22;18248;51.522;7.020;2024-01-30T06:31:01;8.00;99.90
31639;DHT22;18248;51.522;7.020;2024-01-30T06:33:59;7.90;99.90
31639;DHT22;18248;51.522;7.020;2024-01-30T06:36:58;7.90;99.90
31639;DHT22;18248;51.522;7.020;2024-01-30T06:39:57;7.80;99.90
31639;DHT22;18248;51.522;7.020;2024-01-30T06:42:55;7.80;99.90
31639;DHT22;18248;51.522;7.020;2024-01-30T06:45:54;7.80;99.90
31639;DHT22;18248;51.522;7.020;2024-01-30T06:48:52;7.70;99.90
31639;DHT22;18248;51.522;7.020;2024-01-30T06:51:51;7.70;99.90
31639;DHT22;18248;51.522;7.020;2024-01-30T06:54:49;7.70;99.90
31639;DHT22;18248;51.522;7.020;2024-01-30T06:57:48;7.70;99.90
31639;DHT22;18248;51.522;7.020;2024-01-30T07:00:46;7.70;99.90
31639;DHT22;18248;51.522;7.020;2024-01-30T07:03:45;7.70;99.90
31639;DHT22;18248;51.522;7.020;2024-01-30T07:06:43;7.60;99.90
31639;DHT22;18248;51.522;7.020;2024-01-30T07:09:42;7.60;99.90
31639;DHT22;18248;51.522;7.020;2024-01-30T07:12:41;7.70;99.90
31639;DHT22;18248;51.522;7.020;2024-01-30T07:15:39;7.70;99.90
31639;DHT22;18248;51.522;7.020;2024-01-30T07:18:38;7.60;99.90
31639;DHT22;18248;51.522;7.020;2024-01-30T07:21:36;7.60;99.90
31639;DHT22;18248;51.522;7.020;2024-01-30T07:24:35;7.60;99.90
31639;DHT22;18248;51.522;7.020;2024-01-30T07:27:33;7.60;99.90
31639;DHT22;18248;51.522;7.020;2024-01-30T07:30:32;7.70;99.90
31639;DHT22;18248;51.522;7.020;2024-01-30T07:33:30;7.70;99.90
31639;DHT22;18248;51.522;7.020;2024-01-30T07:36:29;7.80;99.90
31639;DHT22;18248;51.522;7.020;2024-01-30T07:39:28;7.80;99.90
31639;DHT22;18248;51.522;7.020;2024-01-30T07:42:26;8.00;99.90
31639;DHT22;18248;51.522;7.020;2024-01-30T07:45:25;8.10;99.90
31639;DHT22;18248;51.522;7.020;2024-01-30T07:48:25;8.30;99.90
31639;DHT22;18248;51.522;7.020;2024-01-30T07:51:24;8.40;99.90
31639;DHT22;18248;51.522;7.020;2024-01-30T07:54:22;8.50;99.90
31639;DHT22;18248;51.522;7.020;2024-01-30T08:01:29;8.70;99.90
31639;DHT22;18248;51.522;7.020;2024-01-30T08:04:27;8.80;99.90
31639;DHT22;18248;51.522;7.020;2024-01-30T08:07:26;8.90;99.90
31639;DHT22;18248;51.522;7.020;2024-01-30T08:10:27;9.00;99.90
31639;DHT22;18248;51.522;7.020;2024-01-30T08:13:27;9.00;99.90
31639;DHT22;18248;51.522;7.020;2024-01-30T08:16:26;9.10;99.90
31639;DHT22;18248;51.522;7.020;2024-01-30T08:19:24;9.20;99.90
31639;DHT22;18248;51.522;7.020;2024-01-30T08:22:23;9.30;99.90
31639;DHT22;18248;51.522;7.020;2024-01-30T08:25:21;9.40;99.90
31639;DHT22;18248;51.522;7.020;2024-01-30T08:28:20;9.40;99.90
31639;DHT22;18248;51.522;7.020;2024-01-30T08:31:18;9.50;99.90
31639;DHT22;18248;51.522;7.020;2024-01-30T08:34:17;9.60;99.90
31639;DHT22;18248;51.522;7.020;2024-01-30T08:37:15;9.60;99.90
31639;DHT22;18248;51.522;7.020;2024-01-30T08:40:14;9.70;99.90
31639;DHT22;18248;51.522;7.020;2024-01-30T08:43:13;9.70;99.90
31639;DHT22;18248;51.522;7.020;2024-01-30T08:46:12;9.80;99.90
31639;DHT22;18248;51.522;7.020;2024-01-30T08:49:11;9.80;99.90
31639;DHT22;18248;51.522;7.020;2024-01-30T08:52:11;9.90;99.90
31639;DHT22;18248;51.522;7.020;2024-01-30T08:55:10;10.00;99.90
31639;DHT22;18248;51.522;7.020;2024-01-30T08:58:08;10.00;99.90
31639;DHT22;18248;51.522;7.020;2024-01-30T09:01:07;10.00;99.90
31639;DHT22;18248;51.522;7.020;2024-01-30T09:04:05;10.20;99.90
31639;DHT22;18248;51.522;7.020;2024-01-30T09:07:04;10.20;99.90
31639;DHT22;18248;51.522;7.020;2024-01-30T09:10:07;10.30;99.90
31639;DHT22;18248;51.522;7.020;2024-01-30T09:13:05;10.30;99.90
31639;DHT22;18248;51.522;7.020;2024-01-30T09:16:04;10.40;99.90
31639;DHT22;18248;51.522;7.020;2024-01-30T09:19:03;10.40;99.90
31639;DHT22;18248;51.522;7.020;2024-01-30T09:22:02;10.50;99.90
31639;DHT22;18248;51.522;7.020;2024-01-30T09:25:01;10.50;99.90
31639;DHT22;18248;51.522;7.020;2024-01-30T09:28:00;10.50;99.90
31639;DHT22;18248;51.522;7.020;2024-01-30T09:30:59;10.60;99.90
31639;DHT22;18248;51.522;7.020;2024-01-30T09:33:57;10.60;99.90
31639;DHT22;18248;51.522;7.020;2024-01-30T09:36:56;10.70;99.90
31639;DHT22;18248;51.522;7.020;2024-01-30T09:39:54;10.70;99.90
31639;DHT22;18248;51.522;7.020;2024-01-30T09:42:54;10.80;99.90
31639;DHT22;18248;51.522;7.020;2024-01-30T09:45:53;10.90;99.90
31639;DHT22;18248;51.522;7.020;2024-01-30T09:48:52;11.00;99.90
31639;DHT22;18248;51.522;7.020;2024-01-30T09:51:52;11.10;99.90
31639;DHT22;18248;51.522;7.020;2024-01-30T09:54:51;11.20;99.90
31639;DHT22;18248;51.522;7.020;2024-01-30T09:57:51;11.30;99.90
31639;DHT22;18248;51.522;7.020;2024-01-30T10:00:49;11.40;99.90
31639;DHT22;18248;51.522;7.020;2024-01-30T10:03:50;11.50;99.90
31639;DHT22;18248;51.522;7.020;2024-01-30T10:06:51;11.70;99.90
31639;DHT22;18248;51.522;7.020;2024-01-30T10:09:49;11.80;99.90
31639;DHT22;18248;51.522;7.020;2024-01-30T10:12:48;11.90;99.90
31639;DHT22;18248;51.522;7.020;2024-01-30T10:15:47;12.00;99.90
31639;DHT22;18248;51.522;7.020;2024-01-30T10:18:46;12.00;99.90
31639;DHT22;18248;51.522;7.020;2024-01-30T10:21:46;12.10;99.90
31639;DHT22;18248;51.522;7.020;2024-01-30T10:24:44;12.20;99.90
31639;DHT22;18248;51.522;7.020;2024-01-30T10:27:43;12.40;99.90
31639;DHT22;18248;51.522;7.020;2024-01-30T10:30:42;12.50;99.90
31639;DHT22;18248;51.522;7.020;2024-01-30T10:33:41;12.60;99.90
31639;DHT22;18248;51.522;7.020;2024-01-30T10:36:40;12.60;99.90
31639;DHT22;18248;51.522;7.020;2024-01-30T10:39:41;12.70;99.90
31639;DHT22;18248;51.522;7.020;2024-01-30T10:42:44;12.80;99.90
31639;DHT22;18248;51.522;7.020;2024-01-30T10:45:45;12.80;99.90
31639;DHT22;18248;51.522;7.020;2024-01-30T10:48:56;12.80;99.90
31639;DHT22;18248;51.522;7.020;2024-01-30T10:51:56;12.90;99.90
31639;DHT22;18248;51.522;7.020;2024-01-30T10:54:56;12.90;99.90
31639;DHT22;18248;51.522;7.020;2024-01-30T10:57:54;13.00;99.90
31639;DHT22;18248;51.522;7.020;2024-01-30T11:00:54;13.00;99.90
31639;DHT22;18248;51.522;7.020;2024-01-30T11:03:53;13.00;99.90
31639;DHT22;18248;51.522;7.020;2024-01-30T11:06:54;13.00;99.90
31639;DHT22;18248;51.522;7.020;2024-01-30T11:09:54;13.00;99.90
31639;DHT22;18248;51.522;7.020;2024-01-30T11:13:13;13.00;99.90
31639;DHT22;18248;51.522;7.020;2024-01-30T11:16:12;13.10;99.90
31639;DHT22;18248;51.522;7.020;2024-01-30T11:19:11;13.00;99.90
31639;DHT22;18248;51.522;7.020;2024-01-30T11:22:11;13.10;99.90
31639;DHT22;18248;51.522;7.020;2024-01-30T11:25:16;13.20;99.90
31639;DHT22;18248;51.522;7.020;2024-01-30T11:28:16;13.30;99.90
31639;DHT22;18248;51.522;7.020;2024-01-30T11:31:18;13.30;99.90
31639;DHT22;18248;51.522;7.020;2024-01-30T11:34:18;13.20;99.90
31639;DHT22;18248;51.522;7.020;2024-01-30T11:37:20;13.20;99.90
31639;DHT22;18248;51.522;7.020;2024-01-30T11:40:19;13.20;99.90
31639;DHT22;18248;51.522;7.020;2024-01-30T11:43:19;13.20;99.90
31639;DHT22;18248;51.522;7.020;2024-01-30T11:46:18;13.10;99.90
31639;DHT22;18248;51.522;7.020;2024-01-30T11:49:17;13.20;99.90
31639;DHT22;18248;51.522;7.020;2024-01-30T11:52:16;13.20;99.90
31639;DHT22;18248;51.522;7.020;2024-01-30T11:55:15;13.10;99.90
31639;DHT22;18248;51.522;7.020;2024-01-30T11:58:13;13.20;99.90
31639;DHT22;18248;51.522;7.020;2024-01-30T12:01:12;13.20;99.90
31639;DHT22;18248;51.522;7.020;2024-01-30T12:04:11;13.20;99.90
31639;DHT22;18248;51.522;7.020;2024-01-30T12:07:09;13.20;99.90
31639;DHT22;18248;51.522;7.020;2024-01-30T12:10:08;13.20;99.90
31639;DHT22;18248;51.522;7.020;2024-01-30T12:13:08;13.10;99.90
31639;DHT22;18248;51.522;7.020;2024-01-30T12:16:06;13.20;99.90
31639;DHT22;18248;51.522;7.020;2024-01-30T12:19:05;13.10;99.90
31639;DHT22;18248;51.522;7.020;2024-01-30T12:22:03;13.10;99.90
31639;DHT22;18248;51.522;7.020;2024-01-30T12:25:03;13.20;99.90
31639;DHT22;18248;51.522;7.020;2024-01-30T12:28:02;13.20;99.90
31639;DHT22;18248;51.522;7.020;2024-01-30T12:31:02;13.20;99.90
31639;DHT22;18248;51.522;7.020;2024-01-30T12:34:01;13.20;99.90
31639;DHT22;18248;51.522;7.020;2024-01-30T12:36:59;13.10;99.90
31639;DHT22;18248;51.522;7.020;2024-01-30T12:39:58;13.20;99.90
31639;DHT22;18248;51.522;7.020;2024-01-30T12:42:57;13.20;99.90
31639;DHT22;18248;51.522;7.020;2024-01-30T12:45:56;13.10;99.90
31639;DHT22;18248;51.522;7.020;2024-01-30T12:48:54;13.10;99.90
31639;DHT22;18248;51.522;7.020;2024-01-30T12:51:53;13.10;99.90
31639;DHT22;18248;51.522;7.020;2024-01-30T12:54:52;13.10;99.90
31639;DHT22;18248;51.522;7.020;2024-01-30T12:57:50;13.10;99.90
31639;DHT22;18248;51.522;7.020;2024-01-30T13:00:49;13.10;99.90
31639;DHT22;18248;51.522;7.020;2024-01-30T13:03:47;13.10;99.90
31639;DHT22;18248;51.522;7.020;2024-01-30T13:06:46;13.10;99.90
31639;DHT22;18248;51.522;7.020;2024-01-30T13:09:45;13.10;99.90
31639;DHT22;18248;51.522;7.020;2024-01-30T13:12:43;13.10;99.90
31639;DHT22;18248;51.522;7.020;2024-01-30T13:15:42;13.10;99.90
31639;DHT22;18248;51.522;7.020;2024-01-30T13:18:41;13.00;99.90
31639;DHT22;18248;51.522;7.020;2024-01-30T13:21:39;13.00;99.90
31639;DHT22;18248;51.522;7.020;2024-01-30T13:24:38;13.00;99.90
31639;DHT22;18248;51.522;7.020;2024-01-30T13:27:37;13.00;99.90
31639;DHT22;18248;51.522;7.020;2024-01-30T13:30:36;13.00;99.90
31639;DHT22;18248;51.522;7.020;2024-01-30T13:33:34;13.00;99.90
31639;DHT22;18248;51.522;7.020;2024-01-30T13:36:33;13.00;99.90
31639;DHT22;18248;51.522;7.020;2024-01-30T13:39:32;13.00;99.90
31639;DHT22;18248;51.522;7.020;2024-01-30T13:42:30;13.00;99.90
31639;DHT22;18248;51.522;7.020;2024-01-30T13:45:29;13.00;99.90
31639;DHT22;18248;51.522;7.020;2024-01-30T13:48:28;13.00;99.90
31639;DHT22;18248;51.522;7.020;2024-01-30T13:51:26;13.00;99.90
31639;DHT22;18248;51.522;7.020;2024-01-30T13:54:25;13.00;99.90
31639;DHT22;18248;51.522;7.020;2024-01-30T13:57:23;13.10;99.90
31639;DHT22;18248;51.522;7.020;2024-01-30T14:00:22;13.00;99.90
31639;DHT22;18248;51.522;7.020;2024-01-30T14:03:21;13.00;99.90
31639;DHT22;18248;51.522;7.020;2024-01-30T14:06:20;13.00;99.90
31639;DHT22;18248;51.522;7.020;2024-01-30T14:09:18;13.00;99.90
31639;DHT22;18248;51.522;7.020;2024-01-30T14:12:17;13.00;99.90
31639;DHT22;18248;51.522;7.020;2024-01-30T14:15:15;13.00;99.90
31639;DHT22;18248;51.522;7.020;2024-01-30T14:18:16;13.00;99.90
31639;DHT22;18248;51.522;7.020;2024-01-30T14:21:15;13.10;99.90
31639;DHT22;18248;51.522;7.020;2024-01-30T14:24:13;13.00;99.90
31639;DHT22;18248;51.522;7.020;2024-01-30T14:27:12;13.10;99.90
31639;DHT22;18248;51.522;7.020;2024-01-30T14:30:11;13.10;99.90
31639;DHT22;18248;51.522;7.020;2024-01-30T14:33:09;13.20;99.90
31639;DHT22;18248;51.522;7.020;2024-01-30T14:36:08;13.20;99.90
31639;DHT22;18248;51.522;7.020;2024-01-30T14:39:07;13.30;99.90
31639;DHT22;18248;51.522;7.020;2024-01-30T14:42:07;13.30;99.90
31639;DHT22;18248;51.522;7.020;2024-01-30T14:45:06;13.30;99.90
31639;DHT22;18248;51.522;7.020;2024-01-30T14:48:05;13.20;99.90
31639;DHT22;18248;51.522;7.020;2024-01-30T14:51:04;13.20;99.90
31639;DHT22;18248;51.522;7.020;2024-01-30T14:54:03;13.20;99.90
31639;DHT22;18248;51.522;7.020;2024-01-30T14:57:01;13.30;99.90
31639;DHT22;18248;51.522;7.020;2024-01-30T15:00:00;13.30;99.90
31639;DHT22;18248;51.522;7.020;2024-01-30T15:02:59;13.30;99.90
31639;DHT22;18248;51.522;7.020;2024-01-30T15:05:58;13.30;99.90
31639;DHT22;18248;51.522;7.020;2024-01-30T15:08:56;13.30;99.90
31639;DHT22;18248;51.522;7.020;2024-01-30T15:11:55;13.20;99.90
31639;DHT22;18248;51.522;7.020;2024-01-30T15:14:53;13.20;99.90
31639;DHT22;18248;51.522;7.020;2024-01-30T15:17:52;13.00;99.90
31639;DHT22;18248;51.522;7.020;2024-01-30T15:20:50;13.00;99.90
31639;DHT22;18248;51.522;7.020;2024-01-30T15:23:49;12.90;99.90
31639;DHT22;18248;51.522;7.020;2024-01-30T15:26:47;12.90;99.90
31639;DHT22;18248;51.522;7.020;2024-01-30T15:29:46;12.80;99.90
31639;DHT22;18248;51.522;7.020;2024-01-30T15:32:44;12.80;99.90
31639;DHT22;18248;51.522;7.020;2024-01-30T15:35:43;12.70;99.90
31639;DHT22;18248;51.522;7.020;2024-01-30T15:38:42;12.70;99.90
31639;DHT22;18248;51.522;7.020;2024-01-30T15:41:40;12.60;99.90
31639;DHT22;18248;51.522;7.020;2024-01-30T15:44:39;12.60;99.90
31639;DHT22;18248;51.522;7.020;2024-01-30T15:47:37;12.50;99.90
31639;DHT22;18248;51.522;7.020;2024-01-30T15:50:36;12.50;99.90
31639;DHT22;18248;51.522;7.020;2024-01-30T15:53:35;12.50;99.90
31639;DHT22;18248;51.522;7.020;2024-01-30T15:56:34;12.40;99.90
31639;DHT22;18248;51.522;7.020;2024-01-30T15:59:33;12.40;99.90
31639;DHT22;18248;51.522;7.020;2024-01-30T16:02:31;12.40;99.90
31639;DHT22;18248;51.522;7.020;2024-01-30T16:05:30;12.40;99.90
31639;DHT22;18248;51.522;7.020;2024-01-30T16:08:28;12.40;99.90
31639;DHT22;18248;51.522;7.020;2024-01-30T16:11:27;12.30;99.90
31639;DHT22;18248;51.522;7.020;2024-01-30T16:14:25;12.20;99.90
31639;DHT22;18248;51.522;7.020;2024-01-30T16:17:24;12.20;99.90
31639;DHT22;18248;51.522;7.020;2024-01-30T16:20:22;12.10;99.90
31639;DHT22;18248;51.522;7.020;2024-01-30T16:23:21;12.10;99.90
31639;DHT22;18248;51.522;7.020;2024-01-30T16:26:20;12.00;99.90
31639;DHT22;18248;51.522;7.020;2024-01-30T16:29:19;12.00;99.90
31639;DHT22;18248;51.522;7.020;2024-01-30T16:32:18;11.90;99.90
31639;DHT22;18248;51.522;7.020;2024-01-30T16:35:17;11.90;99.90
31639;DHT22;18248;51.522;7.020;2024-01-30T16:38:16;11.90;99.90
31639;DHT22;18248;51.522;7.020;2024-01-30T16:41:14;11.80;99.90
31639;DHT22;18248;51.522;7.020;2024-01-30T16:44:13;11.80;99.90
31639;DHT22;18248;51.522;7.020;2024-01-30T16:47:11;11.80;99.90
31639;DHT22;18248;51.522;7.020;2024-01-30T16:50:10;11.80;99.90
31639;DHT22;18248;51.522;7.020;2024-01-30T16:53:09;11.80;99.90
31639;DHT22;18248;51.522;7.020;2024-01-30T16:56:07;11.70;99.90
31639;DHT22;18248;51.522;7.020;2024-01-30T16:59:06;11.70;99.90
31639;DHT22;18248;51.522;7.020;2024-01-30T17:02:05;11.70;99.90
31639;DHT22;18248;51.522;7.020;2024-01-30T17:05:04;11.60;99.90
31639;DHT22;18248;51.522;7.020;2024-01-30T17:08:03;11.60;99.90
31639;DHT22;18248;51.522;7.020;2024-01-30T17:11:01;11.60;99.90
31639;DHT22;18248;51.522;7.020;2024-01-30T17:14:00;11.60;99.90
31639;DHT22;18248;51.522;7.020;2024-01-30T17:16:59;11.60;99.90
31639;DHT22;18248;51.522;7.020;2024-01-30T17:19:58;11.50;99.90
31639;DHT22;18248;51.522;7.020;2024-01-30T17:22:57;11.50;99.90
31639;DHT22;18248;51.522;7.020;2024-01-30T17:25:55;11.50;99.90
31639;DHT22;18248;51.522;7.020;2024-01-30T17:28:54;11.50;99.90
31639;DHT22;18248;51.522;7.020;2024-01-30T17:31:53;11.50;99.90
31639;DHT22;18248;51.522;7.020;2024-01-30T17:34:52;11.40;99.90
31639;DHT22;18248;51.522;7.020;2024-01-30T17:37:50;11.40;99.90
31639;DHT22;18248;51.522;7.020;2024-01-30T17:40:49;11.40;99.90
31639;DHT22;18248;51.522;7.020;2024-01-30T17:43:49;11.20;99.90
31639;DHT22;18248;51.522;7.020;2024-01-30T17:46:48;11.10;99.90
31639;DHT22;18248;51.522;7.020;2024-01-30T17:49:47;11.00;99.90
31639;DHT22;18248;51.522;7.020;2024-01-30T17:52:45;11.00;99.90
31639;DHT22;18248;51.522;7.020;2024-01-30T17:55:44;10.90;99.90
31639;DHT22;18248;51.522;7.020;2024-01-30T17:58:43;10.90;99.90
31639;DHT22;18248;51.522;7.020;2024-01-30T18:01:46;10.90;99.90
31639;DHT22;18248;51.522;7.020;2024-01-30T18:04:45;10.90;99.90
31639;DHT22;18248;51.522;7.020;2024-01-30T18:07:43;10.90;99.90
31639;DHT22;18248;51.522;7.020;2024-01-30T18:10:42;10.80;99.90
31639;DHT22;18248;51.522;7.020;2024-01-30T18:13:41;10.80;99.90
31639;DHT22;18248;51.522;7.020;2024-01-30T18:16:40;10.80;99.90
31639;DHT22;18248;51.522;7.020;2024-01-30T18:19:39;10.80;99.90
31639;DHT22;18248;51.522;7.020;2024-01-30T18:22:37;10.80;99.90
31639;DHT22;18248;51.522;7.020;2024-01-30T18:25:40;10.80;99.90
31639;DHT22;18248;51.522;7.020;2024-01-30T18:28:38;10.80;99.90
31639;DHT22;18248;51.522;7.020;2024-01-30T18:31:37;10.70;99.90
31639;DHT22;18248;51.522;7.020;2024-01-30T18:34:39;10.70;99.90
31639;DHT22;18248;51.522;7.020;2024-01-30T18:37:38;10.70;99.90
31639;DHT22;18248;51.522;7.020;2024-01-30T18:40:36;10.60;99.90
31639;DHT22;18248;51.522;7.020;2024-01-30T18:43:34;10.60;99.90
31639;DHT22;18248;51.522;7.020;2024-01-30T18:46:34;10.50;99.90
31639;DHT22;18248;51.522;7.020;2024-01-30T18:49:32;10.50;99.90
31639;DHT22;18248;51.522;7.020;2024-01-30T18:52:31;10.50;99.90
31639;DHT22;18248;51.522;7.020;2024-01-30T18:55:29;10.60;99.90
31639;DHT22;18248;51.522;7.020;2024-01-30T18:58:28;10.50;99.90
31639;DHT22;18248;51.522;7.020;2024-01-30T19:01:27;10.50;99.90